sensor_id;sensor_type;location;lat;lon;timestamp;temperature;humidity
1447;DHT22;717;51.522;7.266;2022-11-15T00:00:08;14.40;97.80
1447;DHT22;717;51.522;7.266;2022-11-15T00:02:38;14.40;97.90
1447;DHT22;717;51.522;7.266;2022-11-15T00:05:07;14.50;98.10
1447;DHT22;717;51.522;7.266;2022-11-15T00:07:36;14.50;98.10
1447;DHT22;717;51.522;7.266;2022-11-15T00:10:06;14.50;98.20
1447;DHT22;717;51.522;7.266;2022-11-15T00:12:34;14.60;98.20
1447;DHT22;717;51.522;7.266;2022-11-15T00:15:07;14.60;98.20
1447;DHT22;717;51.522;7.266;2022-11-15T00:17:36;14.60;98.30
1447;DHT22;717;51.522;7.266;2022-11-15T00:20:06;14.60;98.30
1447;DHT22;717;51.522;7.266;2022-11-15T00:22:35;14.70;98.40
1447;DHT22;717;51.522;7.266;2022-11-15T00:25:05;14.70;98.40
1447;DHT22;717;51.522;7.266;2022-11-15T00:27:34;14.70;98.40
1447;DHT22;717;51.522;7.266;2022-11-15T00:30:06;14.70;98.50
1447;DHT22;717;51.522;7.266;2022-11-15T00:32:34;14.70;98.50
1447;DHT22;717;51.522;7.266;2022-11-15T00:35:04;14.80;98.60
1447;DHT22;717;51.522;7.266;2022-11-15T00:37:33;14.80;98.70
1447;DHT22;717;51.522;7.266;2022-11-15T00:40:02;14.80;98.70
1447;DHT22;717;51.522;7.266;2022-11-15T00:42:31;14.80;98.80
1447;DHT22;717;51.522;7.266;2022-11-15T00:45:00;14.80;98.90
1447;DHT22;717;51.522;7.266;2022-11-15T00:47:31;14.90;98.90
1447;DHT22;717;51.522;7.266;2022-11-15T00:50:00;14.90;99.00
1447;DHT22;717;51.522;7.266;2022-11-15T00:52:28;14.90;99.10
1447;DHT22;717;51.522;7.266;2022-11-15T00:54:57;15.00;99.20
1447;DHT22;717;51.522;7.266;2022-11-15T00:57:25;15.00;99.30
1447;DHT22;717;51.522;7.266;2022-11-15T00:59:54;15.00;99.30
1447;DHT22;717;51.522;7.266;2022-11-15T01:02:23;15.00;99.40
1447;DHT22;717;51.522;7.266;2022-11-15T01:04:54;15.00;99.40
1447;DHT22;717;51.522;7.266;2022-11-15T01:07:23;15.00;99.50
1447;DHT22;717;51.522;7.266;2022-11-15T01:09:51;15.00;99.50
1447;DHT22;717;51.522;7.266;2022-11-15T01:12:20;15.10;99.50
1447;DHT22;717;51.522;7.266;2022-11-15T01:14:49;15.10;99.60
1447;DHT22;717;51.522;7.266;2022-11-15T01:17:18;15.10;99.70
1447;DHT22;717;51.522;7.266;2022-11-15T01:19:47;15.10;99.60
1447;DHT22;717;51.522;7.266;2022-11-15T01:22:18;15.20;99.70
1447;DHT22;717;51.522;7.266;2022-11-15T01:24:47;15.20;99.70
1447;DHT22;717;51.522;7.266;2022-11-15T01:27:17;15.20;99.90
1447;DHT22;717;51.522;7.266;2022-11-15T01:29:45;15.20;99.90
1447;DHT22;717;51.522;7.266;2022-11-15T01:32:14;15.20;99.90
1447;DHT22;717;51.522;7.266;2022-11-15T01:34:43;15.30;99.90
1447;DHT22;717;51.522;7.266;2022-11-15T01:37:12;15.30;99.90
1447;DHT22;717;51.522;7.266;2022-11-15T01:39:43;15.30;99.90
1447;DHT22;717;51.522;7.266;2022-11-15T01:42:12;15.30;99.90
1447;DHT22;717;51.522;7.266;2022-11-15T01:44:44;15.40;99.90
1447;DHT22;717;51.522;7.266;2022-11-15T01:47:16;15.30;99.90
1447;DHT22;717;51.522;7.266;2022-11-15T01:49:52;15.40;99.90
1447;DHT22;717;51.522;7.266;2022-11-15T01:52:25;15.40;99.90
1447;DHT22;717;51.522;7.266;2022-11-15T01:55:01;15.50;99.90
1447;DHT22;717;51.522;7.266;2022-11-15T01:57:31;15.50;99.90
1447;DHT22;717;51.522;7.266;2022-11-15T02:00:01;15.50;99.90
1447;DHT22;717;51.522;7.266;2022-11-15T02:02:29;15.50;99.90
1447;DHT22;717;51.522;7.266;2022-11-15T02:04:58;15.50;99.90
1447;DHT22;717;51.522;7.266;2022-11-15T02:07:28;15.50;99.90
1447;DHT22;717;51.522;7.266;2022-11-15T02:10:04;15.60;99.90
1447;DHT22;717;51.522;7.266;2022-11-15T02:12:34;15.60;99.90
1447;DHT22;717;51.522;7.266;2022-11-15T02:15:05;15.60;99.90
1447;DHT22;717;51.522;7.266;2022-11-15T02:17:54;15.60;99.90
1447;DHT22;717;51.522;7.266;2022-11-15T02:20:41;15.60;99.90
1447;DHT22;717;51.522;7.266;2022-11-15T02:26:37;15.70;99.90
1447;DHT22;717;51.522;7.266;2022-11-15T02:29:15;15.70;99.90
1447;DHT22;717;51.522;7.266;2022-11-15T02:31:56;15.70;99.90
1447;DHT22;717;51.522;7.266;2022-11-15T02:34:34;15.70;99.90
1447;DHT22;717;51.522;7.266;2022-11-15T02:37:09;15.70;99.90
1447;DHT22;717;51.522;7.266;2022-11-15T02:39:46;15.70;99.90
1447;DHT22;717;51.522;7.266;2022-11-15T02:42:21;15.70;99.90
1447;DHT22;717;51.522;7.266;2022-11-15T02:45:07;15.80;99.90
1447;DHT22;717;51.522;7.266;2022-11-15T02:47:43;15.80;99.90
1447;DHT22;717;51.522;7.266;2022-11-15T02:50:15;15.80;99.90
1447;DHT22;717;51.522;7.266;2022-11-15T02:52:45;15.80;99.90
1447;DHT22;717;51.522;7.266;2022-11-15T02:55:29;15.80;99.90
1447;DHT22;717;51.522;7.266;2022-11-15T02:58:10;15.80;99.90
1447;DHT22;717;51.522;7.266;2022-11-15T03:00:50;15.80;99.90
1447;DHT22;717;51.522;7.266;2022-11-15T03:03:41;15.80;99.90
1447;DHT22;717;51.522;7.266;2022-11-15T03:06:20;15.80;99.90
1447;DHT22;717;51.522;7.266;2022-11-15T03:08:59;15.80;99.90
1447;DHT22;717;51.522;7.266;2022-11-15T03:11:34;15.80;99.90
1447;DHT22;717;51.522;7.266;2022-11-15T03:14:11;15.80;99.90
1447;DHT22;717;51.522;7.266;2022-11-15T03:16:44;15.80;99.90
1447;DHT22;717;51.522;7.266;2022-11-15T03:19:25;15.80;99.90
1447;DHT22;717;51.522;7.266;2022-11-15T03:21:58;15.90;99.90
1447;DHT22;717;51.522;7.266;2022-11-15T03:24:29;15.90;99.90
1447;DHT22;717;51.522;7.266;2022-11-15T03:26:59;15.90;99.90
1447;DHT22;717;51.522;7.266;2022-11-15T03:29:32;15.90;99.90
1447;DHT22;717;51.522;7.266;2022-11-15T03:32:05;15.90;99.90
1447;DHT22;717;51.522;7.266;2022-11-15T03:34:41;16.00;99.90
1447;DHT22;717;51.522;7.266;2022-11-15T03:37:13;15.90;99.90
1447;DHT22;717;51.522;7.266;2022-11-15T03:39:43;16.00;99.90
1447;DHT22;717;51.522;7.266;2022-11-15T03:42:21;16.00;99.90
1447;DHT22;717;51.522;7.266;2022-11-15T03:44:55;16.00;99.90
1447;DHT22;717;51.522;7.266;2022-11-15T03:47:30;16.00;99.90
1447;DHT22;717;51.522;7.266;2022-11-15T03:50:07;16.00;99.90
1447;DHT22;717;51.522;7.266;2022-11-15T03:52:37;16.00;99.90
1447;DHT22;717;51.522;7.266;2022-11-15T03:55:10;16.00;99.90
1447;DHT22;717;51.522;7.266;2022-11-15T03:57:39;16.00;99.90
1447;DHT22;717;51.522;7.266;2022-11-15T04:00:09;16.00;99.90
1447;DHT22;717;51.522;7.266;2022-11-15T04:02:38;16.00;99.90
1447;DHT22;717;51.522;7.266;2022-11-15T04:05:10;16.10;99.90
1447;DHT22;717;51.522;7.266;2022-11-15T04:07:39;16.10;99.90
1447;DHT22;717;51.522;7.266;2022-11-15T04:10:09;16.10;99.90
1447;DHT22;717;51.522;7.266;2022-11-15T04:12:40;16.10;99.90
1447;DHT22;717;51.522;7.266;2022-11-15T04:15:11;16.10;99.90
1447;DHT22;717;51.522;7.266;2022-11-15T04:17:42;16.10;99.90
1447;DHT22;717;51.522;7.266;2022-11-15T04:20:15;16.10;99.90
1447;DHT22;717;51.522;7.266;2022-11-15T04:22:58;16.10;99.90
1447;DHT22;717;51.522;7.266;2022-11-15T04:25:40;16.10;99.90
1447;DHT22;717;51.522;7.266;2022-11-15T04:28:09;16.10;99.90
1447;DHT22;717;51.522;7.266;2022-11-15T04:30:39;16.10;99.90
1447;DHT22;717;51.522;7.266;2022-11-15T04:33:07;16.10;99.90
1447;DHT22;717;51.522;7.266;2022-11-15T04:35:39;16.10;99.90
1447;DHT22;717;51.522;7.266;2022-11-15T04:38:09;16.10;99.90
1447;DHT22;717;51.522;7.266;2022-11-15T04:40:36;16.10;99.90
1447;DHT22;717;51.522;7.266;2022-11-15T04:43:05;16.10;99.90
1447;DHT22;717;51.522;7.266;2022-11-15T04:45:33;16.20;99.90
1447;DHT22;717;51.522;7.266;2022-11-15T04:48:02;16.20;99.90
1447;DHT22;717;51.522;7.266;2022-11-15T04:50:31;16.20;99.90
1447;DHT22;717;51.522;7.266;2022-11-15T04:53:03;16.20;99.90
1447;DHT22;717;51.522;7.266;2022-11-15T04:55:31;16.20;99.90
1447;DHT22;717;51.522;7.266;2022-11-15T04:58:01;16.20;99.90
1447;DHT22;717;51.522;7.266;2022-11-15T05:00:30;16.20;99.90
1447;DHT22;717;51.522;7.266;2022-11-15T05:02:59;16.20;99.90
1447;DHT22;717;51.522;7.266;2022-11-15T05:05:40;16.20;99.90
1447;DHT22;717;51.522;7.266;2022-11-15T05:08:11;16.20;99.90
1447;DHT22;717;51.522;7.266;2022-11-15T05:10:40;16.20;99.90
1447;DHT22;717;51.522;7.266;2022-11-15T05:13:09;16.20;99.90
1447;DHT22;717;51.522;7.266;2022-11-15T05:15:37;16.20;99.90
1447;DHT22;717;51.522;7.266;2022-11-15T05:18:06;16.20;99.90
1447;DHT22;717;51.522;7.266;2022-11-15T05:20:35;16.20;99.90
1447;DHT22;717;51.522;7.266;2022-11-15T05:23:03;16.20;99.90
1447;DHT22;717;51.522;7.266;2022-11-15T05:25:36;16.30;99.90
1447;DHT22;717;51.522;7.266;2022-11-15T05:28:04;16.30;99.90
1447;DHT22;717;51.522;7.266;2022-11-15T05:30:33;16.30;99.90
1447;DHT22;717;51.522;7.266;2022-11-15T05:33:02;16.30;99.90
1447;DHT22;717;51.522;7.266;2022-11-15T05:35:34;16.30;99.90
1447;DHT22;717;51.522;7.266;2022-11-15T05:38:05;16.30;99.90
1447;DHT22;717;51.522;7.266;2022-11-15T05:40:36;16.30;99.90
1447;DHT22;717;51.522;7.266;2022-11-15T05:43:05;16.30;99.90
1447;DHT22;717;51.522;7.266;2022-11-15T05:45:34;16.30;99.90
1447;DHT22;717;51.522;7.266;2022-11-15T05:48:06;16.40;99.90
1447;DHT22;717;51.522;7.266;2022-11-15T05:50:37;16.30;99.90
1447;DHT22;717;51.522;7.266;2022-11-15T05:53:07;16.30;99.90
1447;DHT22;717;51.522;7.266;2022-11-15T05:55:39;16.30;99.90
1447;DHT22;717;51.522;7.266;2022-11-15T05:58:08;16.30;99.90
1447;DHT22;717;51.522;7.266;2022-11-15T06:00:37;16.40;99.90
1447;DHT22;717;51.522;7.266;2022-11-15T06:03:05;16.40;99.90
1447;DHT22;717;51.522;7.266;2022-11-15T06:05:34;16.40;99.90
1447;DHT22;717;51.522;7.266;2022-11-15T06:08:03;16.40;99.90
1447;DHT22;717;51.522;7.266;2022-11-15T06:10:32;16.40;99.90
1447;DHT22;717;51.522;7.266;2022-11-15T06:13:04;16.40;99.90
1447;DHT22;717;51.522;7.266;2022-11-15T06:15:33;16.40;99.90
1447;DHT22;717;51.522;7.266;2022-11-15T06:18:02;16.40;99.90
1447;DHT22;717;51.522;7.266;2022-11-15T06:20:31;16.40;99.90
1447;DHT22;717;51.522;7.266;2022-11-15T06:23:01;16.40;99.90
1447;DHT22;717;51.522;7.266;2022-11-15T06:25:30;16.40;99.90
1447;DHT22;717;51.522;7.266;2022-11-15T06:27:59;16.40;99.90
1447;DHT22;717;51.522;7.266;2022-11-15T06:30:31;16.40;99.90
1447;DHT22;717;51.522;7.266;2022-11-15T06:33:00;16.40;99.90
1447;DHT22;717;51.522;7.266;2022-11-15T06:35:30;16.40;99.90
1447;DHT22;717;51.522;7.266;2022-11-15T06:38:03;16.40;99.90
1447;DHT22;717;51.522;7.266;2022-11-15T06:40:34;16.40;99.90
1447;DHT22;717;51.522;7.266;2022-11-15T06:43:04;16.40;99.90
1447;DHT22;717;51.522;7.266;2022-11-15T06:45:36;16.40;99.90
1447;DHT22;717;51.522;7.266;2022-11-15T06:48:05;16.40;99.90
1447;DHT22;717;51.522;7.266;2022-11-15T06:50:34;16.40;99.90
1447;DHT22;717;51.522;7.266;2022-11-15T06:53:03;16.40;99.90
1447;DHT22;717;51.522;7.266;2022-11-15T06:55:32;16.40;99.90
1447;DHT22;717;51.522;7.266;2022-11-15T06:58:01;16.40;99.90
1447;DHT22;717;51.522;7.266;2022-11-15T07:00:30;16.40;99.90
1447;DHT22;717;51.522;7.266;2022-11-15T07:03:03;16.40;99.90
1447;DHT22;717;51.522;7.266;2022-11-15T07:05:32;16.40;99.90
1447;DHT22;717;51.522;7.266;2022-11-15T07:08:00;16.50;99.90
1447;DHT22;717;51.522;7.266;2022-11-15T07:10:30;16.50;99.90
1447;DHT22;717;51.522;7.266;2022-11-15T07:12:58;16.50;99.90
1447;DHT22;717;51.522;7.266;2022-11-15T07:15:27;16.50;99.90
1447;DHT22;717;51.522;7.266;2022-11-15T07:17:56;16.50;99.90
1447;DHT22;717;51.522;7.266;2022-11-15T07:20:31;16.50;99.90
1447;DHT22;717;51.522;7.266;2022-11-15T07:23:00;16.50;99.90
1447;DHT22;717;51.522;7.266;2022-11-15T07:25:29;16.50;99.90
1447;DHT22;717;51.522;7.266;2022-11-15T07:27:58;16.50;99.90
1447;DHT22;717;51.522;7.266;2022-11-15T07:30:28;16.50;99.90
1447;DHT22;717;51.522;7.266;2022-11-15T07:32:58;16.50;99.90
1447;DHT22;717;51.522;7.266;2022-11-15T07:35:28;16.50;99.90
1447;DHT22;717;51.522;7.266;2022-11-15T07:38:01;16.50;99.90
1447;DHT22;717;51.522;7.266;2022-11-15T07:40:31;16.50;99.90
1447;DHT22;717;51.522;7.266;2022-11-15T07:43:00;16.50;99.90
1447;DHT22;717;51.522;7.266;2022-11-15T07:45:29;16.50;99.90
1447;DHT22;717;51.522;7.266;2022-11-15T07:48:00;16.50;99.90
1447;DHT22;717;51.522;7.266;2022-11-15T07:50:29;16.40;99.90
1447;DHT22;717;51.522;7.266;2022-11-15T07:53:01;16.40;99.90
1447;DHT22;717;51.522;7.266;2022-11-15T07:55:29;16.40;99.90
1447;DHT22;717;51.522;7.266;2022-11-15T07:58:02;16.40;99.90
1447;DHT22;717;51.522;7.266;2022-11-15T08:00:32;16.40;99.90
1447;DHT22;717;51.522;7.266;2022-11-15T08:03:02;16.40;99.90
1447;DHT22;717;51.522;7.266;2022-11-15T08:05:31;16.40;99.90
1447;DHT22;717;51.522;7.266;2022-11-15T08:08:03;16.40;99.90
1447;DHT22;717;51.522;7.266;2022-11-15T08:10:33;16.40;99.90
1447;DHT22;717;51.522;7.266;2022-11-15T08:13:03;16.40;99.90
1447;DHT22;717;51.522;7.266;2022-11-15T08:15:34;16.40;99.90
1447;DHT22;717;51.522;7.266;2022-11-15T08:18:04;16.40;99.90
1447;DHT22;717;51.522;7.266;2022-11-15T08:20:33;16.40;99.90
1447;DHT22;717;51.522;7.266;2022-11-15T08:23:05;16.40;99.90
1447;DHT22;717;51.522;7.266;2022-11-15T08:25:35;16.30;99.90
1447;DHT22;717;51.522;7.266;2022-11-15T08:28:06;16.30;99.90
1447;DHT22;717;51.522;7.266;2022-11-15T08:30:36;16.30;99.90
1447;DHT22;717;51.522;7.266;2022-11-15T08:33:10;16.30;99.90
1447;DHT22;717;51.522;7.266;2022-11-15T08:35:39;16.30;99.90
1447;DHT22;717;51.522;7.266;2022-11-15T08:38:10;16.30;99.90
1447;DHT22;717;51.522;7.266;2022-11-15T08:40:39;16.30;99.90
1447;DHT22;717;51.522;7.266;2022-11-15T08:43:08;16.30;99.90
1447;DHT22;717;51.522;7.266;2022-11-15T08:45:37;16.30;99.90
1447;DHT22;717;51.522;7.266;2022-11-15T08:48:05;16.30;99.90
1447;DHT22;717;51.522;7.266;2022-11-15T08:50:34;16.30;99.90
1447;DHT22;717;51.522;7.266;2022-11-15T08:53:06;16.30;99.90
1447;DHT22;717;51.522;7.266;2022-11-15T08:55:39;16.30;99.90
1447;DHT22;717;51.522;7.266;2022-11-15T08:58:08;16.30;99.90
1447;DHT22;717;51.522;7.266;2022-11-15T09:00:36;16.30;99.90
1447;DHT22;717;51.522;7.266;2022-11-15T09:03:06;16.30;99.80
1447;DHT22;717;51.522;7.266;2022-11-15T09:05:36;16.30;99.80
1447;DHT22;717;51.522;7.266;2022-11-15T09:08:05;16.30;99.80
1447;DHT22;717;51.522;7.266;2022-11-15T09:10:34;16.30;99.70
1447;DHT22;717;51.522;7.266;2022-11-15T09:13:05;16.30;99.70
1447;DHT22;717;51.522;7.266;2022-11-15T09:15:34;16.30;99.60
1447;DHT22;717;51.522;7.266;2022-11-15T09:18:03;16.40;99.50
1447;DHT22;717;51.522;7.266;2022-11-15T09:20:32;16.40;99.40
1447;DHT22;717;51.522;7.266;2022-11-15T09:23:01;16.40;99.30
1447;DHT22;717;51.522;7.266;2022-11-15T09:25:30;16.40;99.30
1447;DHT22;717;51.522;7.266;2022-11-15T09:27:59;16.40;99.20
1447;DHT22;717;51.522;7.266;2022-11-15T09:30:31;16.40;99.10
1447;DHT22;717;51.522;7.266;2022-11-15T09:33:06;16.40;99.00
1447;DHT22;717;51.522;7.266;2022-11-15T09:35:36;16.50;98.90
1447;DHT22;717;51.522;7.266;2022-11-15T09:38:06;16.50;98.80
1447;DHT22;717;51.522;7.266;2022-11-15T09:40:36;16.50;98.70
1447;DHT22;717;51.522;7.266;2022-11-15T09:43:17;16.50;98.60
1447;DHT22;717;51.522;7.266;2022-11-15T09:46:02;16.50;98.50
1447;DHT22;717;51.522;7.266;2022-11-15T09:48:48;16.50;98.40
1447;DHT22;717;51.522;7.266;2022-11-15T09:51:25;16.50;98.40
1447;DHT22;717;51.522;7.266;2022-11-15T09:54:01;16.50;98.20
1447;DHT22;717;51.522;7.266;2022-11-15T09:56:33;16.50;98.20
1447;DHT22;717;51.522;7.266;2022-11-15T09:59:24;16.60;98.20
1447;DHT22;717;51.522;7.266;2022-11-15T10:02:09;16.60;98.00
1447;DHT22;717;51.522;7.266;2022-11-15T10:04:41;16.60;98.00
1447;DHT22;717;51.522;7.266;2022-11-15T10:07:15;16.60;97.90
1447;DHT22;717;51.522;7.266;2022-11-15T10:09:49;16.60;97.80
1447;DHT22;717;51.522;7.266;2022-11-15T10:12:21;16.70;97.80
1447;DHT22;717;51.522;7.266;2022-11-15T10:14:57;16.70;97.70
1447;DHT22;717;51.522;7.266;2022-11-15T10:17:49;16.70;97.50
1447;DHT22;717;51.522;7.266;2022-11-15T10:20:24;16.70;97.40
1447;DHT22;717;51.522;7.266;2022-11-15T10:22:55;16.70;97.30
1447;DHT22;717;51.522;7.266;2022-11-15T10:25:26;16.70;97.10
1447;DHT22;717;51.522;7.266;2022-11-15T10:27:57;16.80;97.00
1447;DHT22;717;51.522;7.266;2022-11-15T10:30:33;16.70;96.60
1447;DHT22;717;51.522;7.266;2022-11-15T10:33:24;16.70;96.60
1447;DHT22;717;51.522;7.266;2022-11-15T10:36:18;16.70;96.50
1447;DHT22;717;51.522;7.266;2022-11-15T10:38:53;16.70;96.50
1447;DHT22;717;51.522;7.266;2022-11-15T10:41:30;16.70;96.40
1447;DHT22;717;51.522;7.266;2022-11-15T10:44:17;16.70;96.40
1447;DHT22;717;51.522;7.266;2022-11-15T10:46:48;16.70;96.30
1447;DHT22;717;51.522;7.266;2022-11-15T10:49:35;16.80;96.20
1447;DHT22;717;51.522;7.266;2022-11-15T10:52:14;16.80;96.20
1447;DHT22;717;51.522;7.266;2022-11-15T10:54:47;16.80;96.20
1447;DHT22;717;51.522;7.266;2022-11-15T10:57:19;16.80;96.10
1447;DHT22;717;51.522;7.266;2022-11-15T10:59:51;16.90;96.10
1447;DHT22;717;51.522;7.266;2022-11-15T11:02:38;16.90;96.10
1447;DHT22;717;51.522;7.266;2022-11-15T11:05:27;16.90;96.00
1447;DHT22;717;51.522;7.266;2022-11-15T11:07:58;17.00;95.80
1447;DHT22;717;51.522;7.266;2022-11-15T11:10:28;17.00;95.70
1447;DHT22;717;51.522;7.266;2022-11-15T11:13:13;17.10;95.80
1447;DHT22;717;51.522;7.266;2022-11-15T11:15:44;17.10;95.60
1447;DHT22;717;51.522;7.266;2022-11-15T11:18:20;17.10;95.60
1447;DHT22;717;51.522;7.266;2022-11-15T11:20:59;17.10;95.40
1447;DHT22;717;51.522;7.266;2022-11-15T11:23:41;17.20;95.40
1447;DHT22;717;51.522;7.266;2022-11-15T11:26:26;17.20;95.20
1447;DHT22;717;51.522;7.266;2022-11-15T11:29:04;17.30;95.20
1447;DHT22;717;51.522;7.266;2022-11-15T11:31:43;17.30;95.20
1447;DHT22;717;51.522;7.266;2022-11-15T11:34:25;17.40;95.10
1447;DHT22;717;51.522;7.266;2022-11-15T11:37:07;17.40;95.00
1447;DHT22;717;51.522;7.266;2022-11-15T11:39:46;17.50;95.00
1447;DHT22;717;51.522;7.266;2022-11-15T11:42:26;17.50;94.90
1447;DHT22;717;51.522;7.266;2022-11-15T11:45:02;17.60;94.80
1447;DHT22;717;51.522;7.266;2022-11-15T11:47:39;17.60;94.80
1447;DHT22;717;51.522;7.266;2022-11-15T11:50:13;17.60;94.90
1447;DHT22;717;51.522;7.266;2022-11-15T11:52:54;17.70;94.80
1447;DHT22;717;51.522;7.266;2022-11-15T11:55:27;17.80;94.60
1447;DHT22;717;51.522;7.266;2022-11-15T11:58:06;17.90;94.30
1447;DHT22;717;51.522;7.266;2022-11-15T12:00:41;17.90;94.10
1447;DHT22;717;51.522;7.266;2022-11-15T12:03:17;18.00;94.20
1447;DHT22;717;51.522;7.266;2022-11-15T12:05:51;18.00;93.50
1447;DHT22;717;51.522;7.266;2022-11-15T12:08:32;18.10;93.50
1447;DHT22;717;51.522;7.266;2022-11-15T12:11:08;18.10;93.20
1447;DHT22;717;51.522;7.266;2022-11-15T12:13:38;18.10;92.90
1447;DHT22;717;51.522;7.266;2022-11-15T12:16:11;18.20;92.70
1447;DHT22;717;51.522;7.266;2022-11-15T12:18:44;18.20;92.20
1447;DHT22;717;51.522;7.266;2022-11-15T12:21:18;18.30;92.10
1447;DHT22;717;51.522;7.266;2022-11-15T12:23:55;18.20;92.00
1447;DHT22;717;51.522;7.266;2022-11-15T12:26:33;18.30;91.80
1447;DHT22;717;51.522;7.266;2022-11-15T12:29:05;18.30;91.50
1447;DHT22;717;51.522;7.266;2022-11-15T12:31:40;18.30;91.40
1447;DHT22;717;51.522;7.266;2022-11-15T12:34:29;18.40;91.40
1447;DHT22;717;51.522;7.266;2022-11-15T12:36:58;18.40;91.30
1447;DHT22;717;51.522;7.266;2022-11-15T12:40:16;18.50;91.20
1447;DHT22;717;51.522;7.266;2022-11-15T12:45:53;18.50;90.80
1447;DHT22;717;51.522;7.266;2022-11-15T12:54:51;18.60;90.60
1447;DHT22;717;51.522;7.266;2022-11-15T12:57:38;18.60;90.80
1447;DHT22;717;51.522;7.266;2022-11-15T13:03:26;18.70;90.80
1447;DHT22;717;51.522;7.266;2022-11-15T13:06:09;18.70;90.90
1447;DHT22;717;51.522;7.266;2022-11-15T13:08:57;18.70;90.80
1447;DHT22;717;51.522;7.266;2022-11-15T13:11:49;18.80;90.80
1447;DHT22;717;51.522;7.266;2022-11-15T13:14:46;18.80;90.90
1447;DHT22;717;51.522;7.266;2022-11-15T13:17:34;18.80;90.90
1447;DHT22;717;51.522;7.266;2022-11-15T13:20:25;18.80;90.70
1447;DHT22;717;51.522;7.266;2022-11-15T13:23:01;18.80;90.80
1447;DHT22;717;51.522;7.266;2022-11-15T13:25:50;18.80;90.80
1447;DHT22;717;51.522;7.266;2022-11-15T13:28:26;18.90;90.70
1447;DHT22;717;51.522;7.266;2022-11-15T13:31:00;18.90;90.70
1447;DHT22;717;51.522;7.266;2022-11-15T13:33:31;18.90;90.60
1447;DHT22;717;51.522;7.266;2022-11-15T13:36:03;19.00;90.70
1447;DHT22;717;51.522;7.266;2022-11-15T13:38:34;19.00;90.80
1447;DHT22;717;51.522;7.266;2022-11-15T13:41:17;19.00;90.80
1447;DHT22;717;51.522;7.266;2022-11-15T13:43:47;19.10;90.80
1447;DHT22;717;51.522;7.266;2022-11-15T13:46:20;19.10;90.80
1447;DHT22;717;51.522;7.266;2022-11-15T13:48:55;19.10;90.60
1447;DHT22;717;51.522;7.266;2022-11-15T13:51:34;19.00;90.70
1447;DHT22;717;51.522;7.266;2022-11-15T13:54:15;19.00;90.70
1447;DHT22;717;51.522;7.266;2022-11-15T13:56:47;19.00;90.70
1447;DHT22;717;51.522;7.266;2022-11-15T13:59:25;19.00;90.70
1447;DHT22;717;51.522;7.266;2022-11-15T14:01:59;18.90;90.80
1447;DHT22;717;51.522;7.266;2022-11-15T14:04:30;18.90;90.80
1447;DHT22;717;51.522;7.266;2022-11-15T14:07:01;18.90;90.80
1447;DHT22;717;51.522;7.266;2022-11-15T14:09:33;18.80;91.20
1447;DHT22;717;51.522;7.266;2022-11-15T14:12:25;18.80;90.90
1447;DHT22;717;51.522;7.266;2022-11-15T14:14:54;18.80;91.00
1447;DHT22;717;51.522;7.266;2022-11-15T14:17:37;18.70;90.90
1447;DHT22;717;51.522;7.266;2022-11-15T14:20:27;18.70;91.10
1447;DHT22;717;51.522;7.266;2022-11-15T14:22:59;18.70;91.30
1447;DHT22;717;51.522;7.266;2022-11-15T14:25:29;18.70;91.40
1447;DHT22;717;51.522;7.266;2022-11-15T14:28:16;18.70;91.30
1447;DHT22;717;51.522;7.266;2022-11-15T14:30:57;18.60;91.40
1447;DHT22;717;51.522;7.266;2022-11-15T14:33:31;18.60;91.50
1447;DHT22;717;51.522;7.266;2022-11-15T14:36:03;18.60;91.60
1447;DHT22;717;51.522;7.266;2022-11-15T14:38:32;18.60;91.70
1447;DHT22;717;51.522;7.266;2022-11-15T14:41:01;18.60;91.70
1447;DHT22;717;51.522;7.266;2022-11-15T14:43:31;18.60;91.70
1447;DHT22;717;51.522;7.266;2022-11-15T14:45:59;18.60;91.80
1447;DHT22;717;51.522;7.266;2022-11-15T14:48:31;18.50;91.80
1447;DHT22;717;51.522;7.266;2022-11-15T14:51:00;18.50;91.80
1447;DHT22;717;51.522;7.266;2022-11-15T14:53:28;18.50;91.90
1447;DHT22;717;51.522;7.266;2022-11-15T14:55:57;18.50;92.00
1447;DHT22;717;51.522;7.266;2022-11-15T14:58:25;18.50;92.00
1447;DHT22;717;51.522;7.266;2022-11-15T15:00:54;18.50;92.00
1447;DHT22;717;51.522;7.266;2022-11-15T15:03:23;18.40;92.10
1447;DHT22;717;51.522;7.266;2022-11-15T15:05:54;18.50;92.10
1447;DHT22;717;51.522;7.266;2022-11-15T15:08:22;18.40;92.10
1447;DHT22;717;51.522;7.266;2022-11-15T15:10:51;18.50;92.10
1447;DHT22;717;51.522;7.266;2022-11-15T15:13:21;18.40;92.10
1447;DHT22;717;51.522;7.266;2022-11-15T15:15:51;18.40;92.10
1447;DHT22;717;51.522;7.266;2022-11-15T15:18:20;18.40;92.10
1447;DHT22;717;51.522;7.266;2022-11-15T15:20:56;18.30;92.20
1447;DHT22;717;51.522;7.266;2022-11-15T15:23:28;18.30;92.20
1447;DHT22;717;51.522;7.266;2022-11-15T15:25:57;18.30;92.30
1447;DHT22;717;51.522;7.266;2022-11-15T15:28:25;18.20;92.30
1447;DHT22;717;51.522;7.266;2022-11-15T15:30:54;18.30;92.30
1447;DHT22;717;51.522;7.266;2022-11-15T15:33:23;18.20;92.30
1447;DHT22;717;51.522;7.266;2022-11-15T15:35:52;18.20;92.30
1447;DHT22;717;51.522;7.266;2022-11-15T15:38:23;18.20;92.40
1447;DHT22;717;51.522;7.266;2022-11-15T15:40:52;18.20;92.50
1447;DHT22;717;51.522;7.266;2022-11-15T15:43:20;18.20;92.50
1447;DHT22;717;51.522;7.266;2022-11-15T15:45:49;18.10;92.50
1447;DHT22;717;51.522;7.266;2022-11-15T15:48:18;18.10;92.50
1447;DHT22;717;51.522;7.266;2022-11-15T15:50:46;18.10;92.60
1447;DHT22;717;51.522;7.266;2022-11-15T15:53:15;18.10;92.60
1447;DHT22;717;51.522;7.266;2022-11-15T15:55:46;18.10;92.70
1447;DHT22;717;51.522;7.266;2022-11-15T15:58:14;18.10;92.70
1447;DHT22;717;51.522;7.266;2022-11-15T16:00:43;18.10;92.70
1447;DHT22;717;51.522;7.266;2022-11-15T16:03:11;18.10;92.80
1447;DHT22;717;51.522;7.266;2022-11-15T16:05:40;18.10;92.70
1447;DHT22;717;51.522;7.266;2022-11-15T16:08:16;18.10;92.70
1447;DHT22;717;51.522;7.266;2022-11-15T16:10:48;18.10;92.80
1447;DHT22;717;51.522;7.266;2022-11-15T16:13:17;18.00;92.80
1447;DHT22;717;51.522;7.266;2022-11-15T16:15:50;18.00;92.80
1447;DHT22;717;51.522;7.266;2022-11-15T16:18:20;18.00;92.90
1447;DHT22;717;51.522;7.266;2022-11-15T16:20:49;18.00;93.00
1447;DHT22;717;51.522;7.266;2022-11-15T16:23:22;17.90;93.00
1447;DHT22;717;51.522;7.266;2022-11-15T16:25:55;17.90;93.00
1447;DHT22;717;51.522;7.266;2022-11-15T16:28:25;17.90;93.10
1447;DHT22;717;51.522;7.266;2022-11-15T16:31:00;17.90;93.20
1447;DHT22;717;51.522;7.266;2022-11-15T16:33:29;17.90;93.20
1447;DHT22;717;51.522;7.266;2022-11-15T16:35:58;17.90;93.30
1447;DHT22;717;51.522;7.266;2022-11-15T16:38:26;17.90;93.30
1447;DHT22;717;51.522;7.266;2022-11-15T16:40:58;17.90;93.30
1447;DHT22;717;51.522;7.266;2022-11-15T16:43:27;17.90;93.30
1447;DHT22;717;51.522;7.266;2022-11-15T16:45:56;17.90;93.40
1447;DHT22;717;51.522;7.266;2022-11-15T16:48:25;17.90;93.50
1447;DHT22;717;51.522;7.266;2022-11-15T16:50:55;17.80;93.50
1447;DHT22;717;51.522;7.266;2022-11-15T16:53:25;17.80;93.60
1447;DHT22;717;51.522;7.266;2022-11-15T16:55:57;17.80;93.60
1447;DHT22;717;51.522;7.266;2022-11-15T16:58:26;17.80;93.60
1447;DHT22;717;51.522;7.266;2022-11-15T17:00:55;17.80;93.60
1447;DHT22;717;51.522;7.266;2022-11-15T17:03:24;17.80;93.70
1447;DHT22;717;51.522;7.266;2022-11-15T17:05:57;17.80;93.70
1447;DHT22;717;51.522;7.266;2022-11-15T17:08:26;17.80;93.80